RYR47C LEMI-EGHH
Flight info
| Callsign | RYR47C |
|---|---|
| Flight time | N/A |
| Altitude | 36000 |
| Route | ALT N851 MITOS N608 COMPI Y90 USKAR/N0437F380 DCT MOPAS DCT GIROM DCT AGN DCT SECHE DCT UVELI DCT CNA DCT MANAK UY110 ORIST Y110 THRED |
| Aircraft | B738/M-SDE3FGILRWY/SB1 |
Departure
| Time | 2026-04-21 11:26 |
|---|---|
| Airport | Region of Murcia International Airport (LEMI) |
Arrival
| Time | N/A |
|---|---|
| Airport | Bournemouth Airport (EGHH) |
| Time | Latitude | Longitude | Altitude | Speed | Heading |
|---|---|---|---|---|---|
| 2026-04-21 11:13 | 37.80409 | -1.13053 | 647 ft | 0 kts | 315° |
| 2026-04-21 11:19 | 37.80402 | -1.13044 | 646 ft | 4 kts | 313° |
| 2026-04-21 11:19 | 37.80384 | -1.13018 | 647 ft | 4 kts | 303° |
| 2026-04-21 11:19 | 37.80372 | -1.12988 | 648 ft | 4 kts | 283° |
| 2026-04-21 11:20 | 37.80373 | -1.12959 | 648 ft | 3 kts | 231° |
| 2026-04-21 11:20 | 37.80378 | -1.12951 | 648 ft | 0 kts | 225° |
| 2026-04-21 11:22 | 37.80377 | -1.12952 | 648 ft | 1 kts | 225° |
| 2026-04-21 11:22 | 37.80348 | -1.12990 | 647 ft | 10 kts | 226° |
| 2026-04-21 11:22 | 37.80289 | -1.13067 | 648 ft | 14 kts | 225° |
| 2026-04-21 11:23 | 37.80205 | -1.13154 | 646 ft | 17 kts | 190° |
| 2026-04-21 11:23 | 37.80098 | -1.13086 | 647 ft | 18 kts | 175° |
| 2026-04-21 11:23 | 37.79998 | -1.13188 | 647 ft | 20 kts | 226° |
| 2026-04-21 11:23 | 37.79897 | -1.13318 | 651 ft | 21 kts | 225° |
| 2026-04-21 11:24 | 37.79780 | -1.13467 | 650 ft | 28 kts | 225° |
| 2026-04-21 11:24 | 37.79639 | -1.13651 | 647 ft | 29 kts | 225° |
| 2026-04-21 11:24 | 37.79497 | -1.13773 | 646 ft | 23 kts | 159° |
| 2026-04-21 11:24 | 37.79416 | -1.13632 | 643 ft | 20 kts | 62° |
| 2026-04-21 11:25 | 37.79524 | -1.13487 | 644 ft | 39 kts | 45° |
| 2026-04-21 11:25 | 37.79887 | -1.13020 | 645 ft | 109 kts | 45° |
| 2026-04-21 11:25 | 37.80566 | -1.12141 | 655 ft | 168 kts | 51° |
| 2026-04-21 11:25 | 37.81419 | -1.11007 | 1173 ft | 179 kts | 49° |
| 2026-04-21 11:26 | 37.82285 | -1.09893 | 2081 ft | 180 kts | 47° |
| 2026-04-21 11:26 | 37.83218 | -1.08669 | 2559 ft | 203 kts | 50° |
| 2026-04-21 11:26 | 37.84192 | -1.07311 | 3120 ft | 216 kts | 49° |
| 2026-04-21 11:26 | 37.85294 | -1.05847 | 3296 ft | 248 kts | 49° |
| 2026-04-21 11:27 | 37.86648 | -1.04247 | 3389 ft | 283 kts | 43° |
| 2026-04-21 11:27 | 37.88104 | -1.02555 | 4276 ft | 279 kts | 45° |
| 2026-04-21 11:27 | 37.89489 | -1.00963 | 5629 ft | 261 kts | 41° |
| 2026-04-21 11:27 | 37.90919 | -0.99537 | 6436 ft | 267 kts | 34° |
| 2026-04-21 11:28 | 37.92646 | -0.98379 | 6683 ft | 294 kts | 22° |
| 2026-04-21 11:28 | 37.94532 | -0.97441 | 7635 ft | 290 kts | 21° |
| 2026-04-21 11:28 | 37.96425 | -0.96498 | 8433 ft | 296 kts | 20° |
| 2026-04-21 11:28 | 37.98326 | -0.95531 | 9362 ft | 295 kts | 20° |
| 2026-04-21 11:29 | 38.00242 | -0.94541 | 10152 ft | 299 kts | 20° |
| 2026-04-21 11:29 | 38.02197 | -0.93518 | 10511 ft | 320 kts | 21° |
| 2026-04-21 11:29 | 38.04357 | -0.92377 | 10790 ft | 342 kts | 21° |
| 2026-04-21 11:29 | 38.06557 | -0.91202 | 11324 ft | 352 kts | 21° |
| 2026-04-21 11:30 | 38.08817 | -0.89986 | 12119 ft | 353 kts | 22° |
| 2026-04-21 11:30 | 38.11088 | -0.88757 | 12875 ft | 358 kts | 22° |
| 2026-04-21 11:30 | 38.13398 | -0.87504 | 13567 ft | 363 kts | 22° |
| 2026-04-21 11:30 | 38.15726 | -0.86239 | 14290 ft | 366 kts | 22° |
| 2026-04-21 11:31 | 38.18084 | -0.84956 | 14927 ft | 371 kts | 22° |
| 2026-04-21 11:31 | 38.20466 | -0.83658 | 15621 ft | 374 kts | 21° |
| 2026-04-21 11:31 | 38.22869 | -0.82348 | 16289 ft | 378 kts | 21° |
| 2026-04-21 11:31 | 38.25299 | -0.81023 | 16943 ft | 382 kts | 21° |
| 2026-04-21 11:32 | 38.27750 | -0.79685 | 17622 ft | 385 kts | 21° |
| 2026-04-21 11:32 | 38.30228 | -0.78330 | 18259 ft | 390 kts | 21° |
| 2026-04-21 11:32 | 38.32734 | -0.76960 | 18794 ft | 394 kts | 21° |
| 2026-04-21 11:32 | 38.35266 | -0.75575 | 19378 ft | 397 kts | 21° |
| 2026-04-21 11:33 | 38.37810 | -0.74181 | 19969 ft | 400 kts | 21° |
| 2026-04-21 11:33 | 38.40375 | -0.72775 | 20511 ft | 403 kts | 21° |
| 2026-04-21 11:33 | 38.42965 | -0.71354 | 21046 ft | 407 kts | 21° |
| 2026-04-21 11:33 | 38.45548 | -0.69937 | 21553 ft | 412 kts | 21° |
| 2026-04-21 11:34 | 38.48191 | -0.68485 | 22052 ft | 416 kts | 21° |
| 2026-04-21 11:34 | 38.50858 | -0.67018 | 22621 ft | 418 kts | 21° |
| 2026-04-21 11:34 | 38.53541 | -0.65541 | 23118 ft | 423 kts | 21° |
| 2026-04-21 11:34 | 38.56256 | -0.64047 | 23593 ft | 426 kts | 21° |
| 2026-04-21 11:35 | 38.58986 | -0.62541 | 24037 ft | 429 kts | 21° |
| 2026-04-21 11:35 | 38.61731 | -0.61027 | 24469 ft | 431 kts | 21° |
| 2026-04-21 11:35 | 38.64497 | -0.59500 | 24895 ft | 434 kts | 21° |
| 2026-04-21 11:35 | 38.67277 | -0.57963 | 25317 ft | 436 kts | 21° |
| 2026-04-21 11:36 | 38.70068 | -0.56419 | 25737 ft | 438 kts | 21° |
| 2026-04-21 11:36 | 38.72875 | -0.54865 | 26133 ft | 441 kts | 21° |
| 2026-04-21 11:36 | 38.75703 | -0.53299 | 26519 ft | 444 kts | 21° |
| 2026-04-21 11:36 | 38.78550 | -0.51720 | 26913 ft | 447 kts | 21° |
| 2026-04-21 11:37 | 38.81412 | -0.50132 | 27291 ft | 450 kts | 21° |
| 2026-04-21 11:37 | 38.84292 | -0.48532 | 27657 ft | 452 kts | 21° |
| 2026-04-21 11:37 | 38.87189 | -0.46921 | 28015 ft | 455 kts | 21° |
| 2026-04-21 11:37 | 38.90106 | -0.45298 | 28393 ft | 457 kts | 21° |
| 2026-04-21 11:38 | 38.93026 | -0.43671 | 28806 ft | 459 kts | 21° |
| 2026-04-21 11:38 | 38.95962 | -0.42034 | 29145 ft | 461 kts | 21° |
| 2026-04-21 11:38 | 38.98915 | -0.40387 | 29477 ft | 464 kts | 21° |
| 2026-04-21 11:38 | 39.01884 | -0.38728 | 29791 ft | 467 kts | 21° |
| 2026-04-21 11:39 | 39.04873 | -0.37058 | 30106 ft | 469 kts | 21° |
| 2026-04-21 11:39 | 39.07869 | -0.35382 | 30384 ft | 471 kts | 21° |
| 2026-04-21 11:39 | 39.10885 | -0.33693 | 30630 ft | 473 kts | 21° |
| 2026-04-21 11:39 | 39.13910 | -0.31997 | 30914 ft | 475 kts | 21° |
| 2026-04-21 11:40 | 39.16939 | -0.30297 | 31257 ft | 475 kts | 21° |
| 2026-04-21 11:40 | 39.19923 | -0.28619 | 31629 ft | 474 kts | 21° |
| 2026-04-21 11:40 | 39.22939 | -0.26923 | 31985 ft | 473 kts | 20° |
| 2026-04-21 11:40 | 39.25957 | -0.25224 | 32302 ft | 473 kts | 20° |
| 2026-04-21 11:41 | 39.28974 | -0.23525 | 32617 ft | 473 kts | 20° |
| 2026-04-21 11:41 | 39.31990 | -0.21825 | 32947 ft | 473 kts | 20° |
| 2026-04-21 11:41 | 39.35000 | -0.20126 | 33284 ft | 472 kts | 20° |
| 2026-04-21 11:41 | 39.38010 | -0.18426 | 33641 ft | 471 kts | 20° |
| 2026-04-21 11:42 | 39.41009 | -0.16730 | 33978 ft | 470 kts | 20° |
| 2026-04-21 11:42 | 39.44005 | -0.15035 | 34227 ft | 470 kts | 20° |
| 2026-04-21 11:42 | 39.47003 | -0.13337 | 34488 ft | 470 kts | 20° |
| 2026-04-21 11:42 | 39.49995 | -0.11641 | 34782 ft | 469 kts | 20° |
| 2026-04-21 11:43 | 39.52982 | -0.09946 | 35074 ft | 468 kts | 20° |
| 2026-04-21 11:43 | 39.55959 | -0.08254 | 35340 ft | 467 kts | 20° |
| 2026-04-21 11:43 | 39.58937 | -0.06562 | 35600 ft | 467 kts | 20° |
| 2026-04-21 11:43 | 39.61904 | -0.04873 | 35911 ft | 465 kts | 20° |
| 2026-04-21 11:44 | 39.64864 | -0.03186 | 36190 ft | 464 kts | 20° |
| 2026-04-21 11:44 | 39.67816 | -0.01503 | 36410 ft | 464 kts | 20° |
| 2026-04-21 11:44 | 39.70734 | 0.00162 | 36671 ft | 463 kts | 20° |
| 2026-04-21 11:44 | 39.73709 | 0.01862 | 37007 ft | 460 kts | 20° |
| 2026-04-21 11:45 | 39.76636 | 0.03536 | 37274 ft | 459 kts | 20° |
| 2026-04-21 11:45 | 39.79561 | 0.05209 | 37466 ft | 460 kts | 20° |
| 2026-04-21 11:45 | 39.82447 | 0.06862 | 37665 ft | 460 kts | 20° |
| 2026-04-21 11:45 | 39.85371 | 0.08538 | 37911 ft | 458 kts | 20° |
| 2026-04-21 11:46 | 39.91241 | 0.11907 | 37946 ft | 462 kts | 20° |
| 2026-04-21 11:46 | 39.97097 | 0.15277 | 37936 ft | 458 kts | 20° |
| 2026-04-21 11:47 | 40.02931 | 0.18640 | 37959 ft | 461 kts | 20° |
| 2026-04-21 11:47 | 40.08845 | 0.22052 | 37975 ft | 468 kts | 20° |
| 2026-04-21 11:48 | 40.14815 | 0.25506 | 37965 ft | 471 kts | 20° |
| 2026-04-21 11:48 | 40.20820 | 0.28989 | 37959 ft | 473 kts | 20° |
| 2026-04-21 11:49 | 40.26836 | 0.32485 | 37960 ft | 472 kts | 21° |
| 2026-04-21 11:49 | 40.32809 | 0.35831 | 37944 ft | 460 kts | 15° |
| 2026-04-21 11:50 | 40.37880 | 0.37840 | 37973 ft | 457 kts | 12° |
| 2026-04-21 11:50 | 40.44021 | 0.40050 | 37943 ft | 458 kts | 12° |
| 2026-04-21 11:51 | 40.51150 | 0.42685 | 37962 ft | 458 kts | 12° |
| 2026-04-21 11:51 | 40.57283 | 0.45019 | 37948 ft | 459 kts | 12° |
| 2026-04-21 11:52 | 40.62427 | 0.46992 | 37942 ft | 460 kts | 13° |
| 2026-04-21 11:52 | 40.68524 | 0.49336 | 37944 ft | 460 kts | 13° |
| 2026-04-21 11:53 | 40.74672 | 0.51701 | 37932 ft | 460 kts | 13° |
| 2026-04-21 11:53 | 40.80818 | 0.54069 | 37944 ft | 460 kts | 13° |
| 2026-04-21 11:54 | 40.86969 | 0.56443 | 37939 ft | 461 kts | 13° |
| 2026-04-21 11:54 | 40.93122 | 0.58822 | 37948 ft | 461 kts | 13° |
| 2026-04-21 11:55 | 40.99317 | 0.60903 | 37929 ft | 457 kts | 6° |
| 2026-04-21 11:55 | 41.05583 | 0.62195 | 37933 ft | 455 kts | 4° |
| 2026-04-21 11:56 | 41.11843 | 0.63402 | 37927 ft | 454 kts | 5° |
| 2026-04-21 11:56 | 41.18038 | 0.64669 | 37923 ft | 453 kts | 5° |
| 2026-04-21 11:57 | 41.24262 | 0.65993 | 37924 ft | 453 kts | 5° |
| 2026-04-21 11:57 | 41.30485 | 0.67333 | 37922 ft | 453 kts | 5° |
| 2026-04-21 11:58 | 41.36701 | 0.68674 | 37935 ft | 453 kts | 5° |
| 2026-04-21 11:58 | 41.42924 | 0.70017 | 37919 ft | 453 kts | 5° |
| 2026-04-21 11:59 | 41.49142 | 0.71361 | 37918 ft | 453 kts | 5° |
| 2026-04-21 11:59 | 41.55360 | 0.72707 | 37911 ft | 453 kts | 5° |
| 2026-04-21 12:00 | 41.61583 | 0.74056 | 37910 ft | 453 kts | 5° |
| 2026-04-21 12:00 | 41.67808 | 0.75410 | 37915 ft | 453 kts | 5° |
| 2026-04-21 12:01 | 41.73989 | 0.76756 | 37918 ft | 453 kts | 5° |
| 2026-04-21 12:01 | 41.80212 | 0.78114 | 37924 ft | 453 kts | 5° |
| 2026-04-21 12:02 | 41.89547 | 0.80156 | 37923 ft | 453 kts | 5° |
| 2026-04-21 12:03 | 41.95767 | 0.81520 | 37923 ft | 453 kts | 5° |
| 2026-04-21 12:03 | 42.01988 | 0.82887 | 37921 ft | 453 kts | 5° |
| 2026-04-21 12:04 | 42.08207 | 0.84256 | 37925 ft | 453 kts | 5° |
| 2026-04-21 12:04 | 42.14420 | 0.85627 | 37940 ft | 452 kts | 5° |
| 2026-04-21 12:05 | 42.20624 | 0.86080 | 37972 ft | 442 kts | 348° |
| 2026-04-21 12:05 | 42.26611 | 0.84382 | 37951 ft | 440 kts | 343° |
| 2026-04-21 12:06 | 42.32583 | 0.82543 | 37954 ft | 441 kts | 343° |
| 2026-04-21 12:06 | 42.38567 | 0.80741 | 37960 ft | 441 kts | 343° |
| 2026-04-21 12:07 | 42.44564 | 0.78963 | 37972 ft | 442 kts | 343° |
| 2026-04-21 12:07 | 42.50575 | 0.77188 | 37956 ft | 442 kts | 343° |
| 2026-04-21 12:08 | 42.56579 | 0.75413 | 37969 ft | 442 kts | 343° |
| 2026-04-21 12:08 | 42.62601 | 0.73627 | 37979 ft | 443 kts | 343° |
| 2026-04-21 12:09 | 42.68575 | 0.71852 | 37979 ft | 442 kts | 343° |
| 2026-04-21 12:09 | 42.74600 | 0.70059 | 37948 ft | 444 kts | 343° |
| 2026-04-21 12:10 | 42.80626 | 0.68259 | 37970 ft | 444 kts | 343° |
| 2026-04-21 12:10 | 42.86667 | 0.66451 | 37935 ft | 443 kts | 343° |
| 2026-04-21 12:11 | 42.92669 | 0.64660 | 37937 ft | 440 kts | 343° |
| 2026-04-21 12:11 | 42.98632 | 0.62871 | 37928 ft | 438 kts | 343° |
| 2026-04-21 12:12 | 43.04568 | 0.61085 | 37928 ft | 436 kts | 343° |
| 2026-04-21 12:12 | 43.10491 | 0.59300 | 37912 ft | 435 kts | 343° |
| 2026-04-21 12:13 | 43.16401 | 0.57516 | 37906 ft | 435 kts | 343° |
| 2026-04-21 12:13 | 43.22269 | 0.55740 | 37898 ft | 435 kts | 343° |
| 2026-04-21 12:14 | 43.28221 | 0.53935 | 37897 ft | 436 kts | 343° |
| 2026-04-21 12:14 | 43.34114 | 0.52145 | 37895 ft | 437 kts | 343° |
| 2026-04-21 12:15 | 43.40062 | 0.50335 | 37891 ft | 438 kts | 343° |
| 2026-04-21 12:15 | 43.46029 | 0.48515 | 37900 ft | 440 kts | 343° |
| 2026-04-21 12:16 | 43.52008 | 0.46688 | 37887 ft | 441 kts | 343° |
| 2026-04-21 12:16 | 43.58002 | 0.44853 | 37890 ft | 442 kts | 343° |
| 2026-04-21 12:17 | 43.64002 | 0.43013 | 37899 ft | 441 kts | 343° |
| 2026-04-21 12:17 | 43.69997 | 0.41171 | 37890 ft | 441 kts | 343° |
| 2026-04-21 12:18 | 43.75987 | 0.39326 | 37890 ft | 441 kts | 343° |
| 2026-04-21 12:18 | 43.81967 | 0.37480 | 37876 ft | 440 kts | 343° |
| 2026-04-21 12:19 | 43.87926 | 0.35638 | 37891 ft | 438 kts | 343° |
| 2026-04-21 12:19 | 43.93869 | 0.33796 | 37890 ft | 437 kts | 343° |
| 2026-04-21 12:20 | 43.99761 | 0.31966 | 37887 ft | 436 kts | 343° |
| 2026-04-21 12:20 | 44.05681 | 0.30123 | 37894 ft | 436 kts | 342° |
| 2026-04-21 12:21 | 44.11589 | 0.28281 | 37885 ft | 435 kts | 342° |
| 2026-04-21 12:21 | 44.17497 | 0.26435 | 37890 ft | 435 kts | 342° |
| 2026-04-21 12:22 | 44.23400 | 0.24585 | 37900 ft | 435 kts | 342° |
| 2026-04-21 12:22 | 44.29307 | 0.22732 | 37894 ft | 435 kts | 342° |
| 2026-04-21 12:23 | 44.35214 | 0.20875 | 37888 ft | 435 kts | 342° |
| 2026-04-21 12:23 | 44.41124 | 0.19012 | 37892 ft | 435 kts | 342° |
| 2026-04-21 12:24 | 44.47038 | 0.17145 | 37902 ft | 436 kts | 342° |
| 2026-04-21 12:24 | 44.52955 | 0.15273 | 37901 ft | 436 kts | 342° |
| 2026-04-21 12:25 | 44.58873 | 0.13397 | 37891 ft | 436 kts | 342° |
| 2026-04-21 12:25 | 44.64795 | 0.11516 | 37906 ft | 436 kts | 342° |
| 2026-04-21 12:26 | 44.70720 | 0.09629 | 37902 ft | 437 kts | 342° |
| 2026-04-21 12:26 | 44.76645 | 0.07739 | 37899 ft | 437 kts | 342° |
| 2026-04-21 12:27 | 44.82567 | 0.05846 | 37908 ft | 436 kts | 342° |
| 2026-04-21 12:27 | 44.88488 | 0.03949 | 37909 ft | 436 kts | 342° |
| 2026-04-21 12:28 | 44.94401 | 0.02051 | 37903 ft | 435 kts | 342° |
| 2026-04-21 12:28 | 45.00302 | 0.00152 | 37933 ft | 435 kts | 342° |
| 2026-04-21 12:29 | 45.06200 | -0.01750 | 37901 ft | 435 kts | 342° |
| 2026-04-21 12:29 | 45.12054 | -0.03641 | 37912 ft | 434 kts | 342° |
| 2026-04-21 12:30 | 45.17941 | -0.05547 | 37923 ft | 434 kts | 342° |
| 2026-04-21 12:30 | 45.23830 | -0.07458 | 37929 ft | 434 kts | 342° |
| 2026-04-21 12:31 | 45.29719 | -0.09373 | 37928 ft | 434 kts | 342° |
| 2026-04-21 12:31 | 45.35611 | -0.11294 | 37932 ft | 435 kts | 342° |
| 2026-04-21 12:32 | 45.41509 | -0.13220 | 37948 ft | 435 kts | 342° |
| 2026-04-21 12:32 | 45.47412 | -0.15151 | 37936 ft | 435 kts | 342° |
| 2026-04-21 12:33 | 45.53316 | -0.17088 | 37944 ft | 435 kts | 342° |
| 2026-04-21 12:33 | 45.59221 | -0.19028 | 37956 ft | 436 kts | 342° |
| 2026-04-21 12:34 | 45.65131 | -0.20975 | 37937 ft | 436 kts | 342° |
| 2026-04-21 12:34 | 45.71038 | -0.22925 | 37969 ft | 436 kts | 342° |
| 2026-04-21 12:35 | 45.76943 | -0.24878 | 37956 ft | 435 kts | 342° |
| 2026-04-21 12:35 | 45.82847 | -0.26836 | 37967 ft | 437 kts | 342° |
| 2026-04-21 12:36 | 45.88801 | -0.28816 | 37975 ft | 442 kts | 342° |
| 2026-04-21 12:36 | 45.94809 | -0.30818 | 37980 ft | 444 kts | 342° |
| 2026-04-21 12:37 | 46.00838 | -0.32829 | 37983 ft | 445 kts | 342° |
| 2026-04-21 12:37 | 46.06826 | -0.34830 | 37976 ft | 445 kts | 342° |
| 2026-04-21 12:38 | 46.12844 | -0.36846 | 37977 ft | 443 kts | 342° |
| 2026-04-21 12:38 | 46.18841 | -0.38860 | 38005 ft | 442 kts | 342° |
| 2026-04-21 12:39 | 46.24824 | -0.40875 | 37993 ft | 441 kts | 342° |
| 2026-04-21 12:39 | 46.30784 | -0.42886 | 37994 ft | 439 kts | 342° |
| 2026-04-21 12:40 | 46.36731 | -0.44898 | 38003 ft | 439 kts | 342° |
| 2026-04-21 12:40 | 46.42669 | -0.46911 | 38008 ft | 438 kts | 342° |
| 2026-04-21 12:41 | 46.48597 | -0.48925 | 38004 ft | 437 kts | 342° |
| 2026-04-21 12:41 | 46.54513 | -0.50940 | 38011 ft | 436 kts | 342° |
| 2026-04-21 12:42 | 46.60420 | -0.52956 | 38020 ft | 436 kts | 342° |
| 2026-04-21 12:42 | 46.66322 | -0.54975 | 38016 ft | 435 kts | 342° |
| 2026-04-21 12:43 | 46.72213 | -0.56994 | 38019 ft | 435 kts | 342° |
| 2026-04-21 12:43 | 46.78094 | -0.59015 | 38025 ft | 434 kts | 342° |
| 2026-04-21 12:44 | 46.83932 | -0.61026 | 38030 ft | 434 kts | 342° |
| 2026-04-21 12:44 | 46.89806 | -0.63053 | 38037 ft | 434 kts | 342° |
| 2026-04-21 12:45 | 46.95679 | -0.65085 | 38035 ft | 434 kts | 342° |
| 2026-04-21 12:45 | 47.01551 | -0.67120 | 38030 ft | 434 kts | 342° |
| 2026-04-21 12:46 | 47.06469 | -0.68829 | 38030 ft | 433 kts | 342° |
| 2026-04-21 12:46 | 47.12339 | -0.70872 | 38036 ft | 433 kts | 342° |
| 2026-04-21 12:47 | 47.19155 | -0.73251 | 38053 ft | 433 kts | 342° |
| 2026-04-21 12:47 | 47.24067 | -0.74969 | 38048 ft | 433 kts | 342° |
| 2026-04-21 12:48 | 47.29917 | -0.77019 | 38045 ft | 432 kts | 342° |
| 2026-04-21 12:48 | 47.35763 | -0.79073 | 38057 ft | 431 kts | 342° |
| 2026-04-21 12:49 | 47.41563 | -0.81115 | 38069 ft | 431 kts | 342° |
| 2026-04-21 12:49 | 47.47391 | -0.83172 | 38071 ft | 430 kts | 342° |
| 2026-04-21 12:50 | 47.53215 | -0.85232 | 38073 ft | 430 kts | 342° |
| 2026-04-21 12:50 | 47.59038 | -0.87296 | 38073 ft | 430 kts | 342° |
| 2026-04-21 12:51 | 47.64865 | -0.89367 | 38075 ft | 431 kts | 342° |
| 2026-04-21 12:51 | 47.70696 | -0.91444 | 38075 ft | 431 kts | 342° |
| 2026-04-21 12:52 | 47.76535 | -0.93529 | 38078 ft | 432 kts | 342° |
| 2026-04-21 12:52 | 47.82377 | -0.95618 | 38097 ft | 432 kts | 342° |
| 2026-04-21 12:53 | 47.88225 | -0.97716 | 38089 ft | 432 kts | 342° |
| 2026-04-21 12:53 | 47.94075 | -0.99819 | 38086 ft | 433 kts | 342° |
| 2026-04-21 12:54 | 47.99927 | -1.01928 | 38088 ft | 433 kts | 342° |
| 2026-04-21 12:54 | 48.05740 | -1.04027 | 38097 ft | 433 kts | 342° |
| 2026-04-21 12:55 | 48.11597 | -1.06147 | 38092 ft | 433 kts | 342° |
| 2026-04-21 12:55 | 48.17454 | -1.08272 | 38094 ft | 433 kts | 342° |
| 2026-04-21 12:56 | 48.23313 | -1.10403 | 38115 ft | 433 kts | 342° |
| 2026-04-21 12:56 | 48.29170 | -1.12538 | 38109 ft | 433 kts | 342° |
| 2026-04-21 12:56 | 48.32102 | -1.13609 | 37994 ft | 434 kts | 342° |
| 2026-04-21 12:57 | 48.35008 | -1.14669 | 37669 ft | 426 kts | 342° |
| 2026-04-21 12:57 | 48.37856 | -1.15707 | 37393 ft | 416 kts | 342° |
| 2026-04-21 12:57 | 48.40644 | -1.16725 | 37123 ft | 409 kts | 342° |
| 2026-04-21 12:57 | 48.43391 | -1.17731 | 36863 ft | 405 kts | 342° |
| 2026-04-21 12:58 | 48.46152 | -1.18749 | 36576 ft | 412 kts | 342° |
| 2026-04-21 12:58 | 48.48922 | -1.19771 | 36195 ft | 408 kts | 341° |
| 2026-04-21 12:58 | 48.51625 | -1.20766 | 35838 ft | 403 kts | 341° |
| 2026-04-21 12:58 | 48.54336 | -1.21764 | 35444 ft | 399 kts | 341° |
| 2026-04-21 12:59 | 48.57025 | -1.22755 | 35079 ft | 396 kts | 341° |
| 2026-04-21 12:59 | 48.59687 | -1.23737 | 34699 ft | 392 kts | 341° |
| 2026-04-21 12:59 | 48.62328 | -1.24713 | 34336 ft | 389 kts | 340° |
| 2026-04-21 12:59 | 48.64945 | -1.25682 | 33967 ft | 386 kts | 340° |
| 2026-04-21 13:00 | 48.67545 | -1.26645 | 33542 ft | 383 kts | 340° |
| 2026-04-21 13:00 | 48.70117 | -1.27598 | 33172 ft | 378 kts | 340° |
| 2026-04-21 13:00 | 48.72659 | -1.28541 | 32793 ft | 375 kts | 340° |
| 2026-04-21 13:00 | 48.75177 | -1.29477 | 32453 ft | 371 kts | 340° |
| 2026-04-21 13:01 | 48.77672 | -1.30406 | 32074 ft | 367 kts | 340° |
| 2026-04-21 13:01 | 48.80143 | -1.31327 | 31694 ft | 365 kts | 340° |
| 2026-04-21 13:01 | 48.82598 | -1.32242 | 31354 ft | 362 kts | 340° |
| 2026-04-21 13:01 | 48.85031 | -1.33151 | 31008 ft | 359 kts | 340° |
| 2026-04-21 13:02 | 48.87445 | -1.34053 | 30664 ft | 356 kts | 340° |
| 2026-04-21 13:02 | 48.89843 | -1.34951 | 30323 ft | 354 kts | 340° |
| 2026-04-21 13:02 | 48.94590 | -1.36729 | 29568 ft | 348 kts | 340° |
| 2026-04-21 13:03 | 48.96935 | -1.37607 | 29196 ft | 345 kts | 340° |
| 2026-04-21 13:03 | 48.99253 | -1.38477 | 28842 ft | 341 kts | 340° |
| 2026-04-21 13:03 | 49.01548 | -1.39340 | 28475 ft | 339 kts | 340° |
| 2026-04-21 13:03 | 49.03828 | -1.40197 | 28122 ft | 336 kts | 340° |
| 2026-04-21 13:04 | 49.06057 | -1.41037 | 27768 ft | 333 kts | 340° |
| 2026-04-21 13:04 | 49.08297 | -1.41882 | 27451 ft | 331 kts | 340° |
| 2026-04-21 13:04 | 49.10526 | -1.42723 | 27102 ft | 329 kts | 340° |
| 2026-04-21 13:04 | 49.12736 | -1.43557 | 26743 ft | 326 kts | 340° |
| 2026-04-21 13:05 | 49.14935 | -1.44388 | 26408 ft | 324 kts | 340° |
| 2026-04-21 13:05 | 49.17118 | -1.45214 | 26073 ft | 322 kts | 340° |
| 2026-04-21 13:05 | 49.19291 | -1.46037 | 25731 ft | 321 kts | 340° |
| 2026-04-21 13:05 | 49.21452 | -1.46856 | 25392 ft | 319 kts | 340° |
| 2026-04-21 13:06 | 49.23602 | -1.47672 | 25053 ft | 318 kts | 340° |
| 2026-04-21 13:06 | 49.25744 | -1.48486 | 24719 ft | 317 kts | 340° |
| 2026-04-21 13:06 | 49.27881 | -1.49298 | 24371 ft | 316 kts | 340° |
| 2026-04-21 13:06 | 49.30015 | -1.50111 | 24023 ft | 316 kts | 340° |
| 2026-04-21 13:07 | 49.32148 | -1.50923 | 23662 ft | 316 kts | 340° |
| 2026-04-21 13:07 | 49.34276 | -1.51734 | 23292 ft | 314 kts | 341° |
| 2026-04-21 13:07 | 49.36394 | -1.52541 | 22926 ft | 313 kts | 341° |
| 2026-04-21 13:07 | 49.38497 | -1.53343 | 22584 ft | 311 kts | 341° |
| 2026-04-21 13:08 | 49.40587 | -1.54141 | 22245 ft | 309 kts | 341° |
| 2026-04-21 13:08 | 49.42664 | -1.54935 | 21913 ft | 307 kts | 341° |
| 2026-04-21 13:08 | 49.44700 | -1.55714 | 21589 ft | 305 kts | 341° |
| 2026-04-21 13:08 | 49.46752 | -1.56499 | 21267 ft | 303 kts | 341° |
| 2026-04-21 13:09 | 49.48790 | -1.57281 | 20940 ft | 301 kts | 341° |
| 2026-04-21 13:09 | 49.50848 | -1.58070 | 20614 ft | 300 kts | 341° |
| 2026-04-21 13:09 | 49.52842 | -1.58836 | 20320 ft | 298 kts | 342° |
| 2026-04-21 13:09 | 49.54850 | -1.59608 | 19996 ft | 297 kts | 342° |
| 2026-04-21 13:10 | 49.56852 | -1.60379 | 19673 ft | 296 kts | 342° |
| 2026-04-21 13:10 | 49.58848 | -1.61147 | 19367 ft | 295 kts | 342° |
| 2026-04-21 13:10 | 49.60836 | -1.61913 | 19057 ft | 294 kts | 342° |
| 2026-04-21 13:10 | 49.62819 | -1.62678 | 18745 ft | 293 kts | 343° |
| 2026-04-21 13:11 | 49.64795 | -1.63440 | 18413 ft | 292 kts | 343° |
| 2026-04-21 13:11 | 49.66762 | -1.64200 | 18071 ft | 291 kts | 343° |
| 2026-04-21 13:11 | 49.68718 | -1.64956 | 17748 ft | 289 kts | 343° |
| 2026-04-21 13:11 | 49.70660 | -1.65707 | 17441 ft | 287 kts | 343° |
| 2026-04-21 13:12 | 49.72587 | -1.66453 | 17124 ft | 285 kts | 343° |
| 2026-04-21 13:12 | 49.74500 | -1.67195 | 16854 ft | 282 kts | 343° |
| 2026-04-21 13:12 | 49.76396 | -1.67929 | 16549 ft | 280 kts | 343° |
| 2026-04-21 13:12 | 49.78280 | -1.68660 | 16255 ft | 278 kts | 343° |
| 2026-04-21 13:13 | 49.80148 | -1.69386 | 15971 ft | 276 kts | 344° |
| 2026-04-21 13:13 | 49.82008 | -1.70109 | 15680 ft | 274 kts | 343° |
| 2026-04-21 13:13 | 49.83852 | -1.70827 | 15395 ft | 273 kts | 343° |
| 2026-04-21 13:13 | 49.85683 | -1.71540 | 15112 ft | 271 kts | 344° |
| 2026-04-21 13:14 | 49.87506 | -1.72252 | 14836 ft | 269 kts | 344° |
| 2026-04-21 13:14 | 49.89323 | -1.72960 | 14544 ft | 269 kts | 344° |
| 2026-04-21 13:14 | 49.91108 | -1.73655 | 14271 ft | 267 kts | 343° |
| 2026-04-21 13:14 | 49.92908 | -1.74357 | 14004 ft | 267 kts | 343° |
| 2026-04-21 13:15 | 49.94715 | -1.75064 | 13679 ft | 270 kts | 344° |
| 2026-04-21 13:15 | 49.96541 | -1.75781 | 13379 ft | 273 kts | 345° |
| 2026-04-21 13:15 | 49.98393 | -1.76506 | 13094 ft | 274 kts | 345° |
| 2026-04-21 13:15 | 50.00239 | -1.77230 | 12802 ft | 272 kts | 346° |
| 2026-04-21 13:16 | 50.02074 | -1.77949 | 12496 ft | 271 kts | 346° |
| 2026-04-21 13:16 | 50.03897 | -1.78664 | 12210 ft | 270 kts | 346° |
| 2026-04-21 13:16 | 50.05715 | -1.79378 | 11910 ft | 269 kts | 346° |
| 2026-04-21 13:16 | 50.07527 | -1.80090 | 11629 ft | 268 kts | 346° |
| 2026-04-21 13:17 | 50.09328 | -1.80799 | 11355 ft | 267 kts | 347° |
| 2026-04-21 13:17 | 50.11126 | -1.81507 | 11063 ft | 266 kts | 348° |
| 2026-04-21 13:17 | 50.12920 | -1.82212 | 10783 ft | 266 kts | 347° |
| 2026-04-21 13:17 | 50.14713 | -1.82898 | 10508 ft | 265 kts | 349° |